Time;durP1;ratioP1;P1;durP2;ratioP2;P2;SDS_P1;SDS_P2;PMS_P1;PMS_P2;Temp;Humidity;BMP_temperature;BMP_pressure;BME280_temperature;BME280_humidity;BME280_pressure;Samples;Min_cycle;Max_cycle;Signal;HPM_P1;HPM_P2
2023/07/25 00:01:30;;;;;;;6.30;2.57;;;15.80;99.90;;;15.59;82.83;99826.44;5055310;28;20187;-73
2023/07/25 00:04:02;;;;;;;8.17;2.57;;;15.90;99.90;;;15.63;82.72;99825.81;5055597;28;20281;-73
2023/07/25 00:06:35;;;;;;;4.80;2.10;;;15.90;99.90;;;15.59;82.44;99824.56;5055116;28;20252;-73
2023/07/25 00:09:09;;;;;;;3.87;1.90;;;15.90;99.90;;;15.45;82.48;99819.41;5055464;28;20285;-73
2023/07/25 00:11:41;;;;;;;3.37;2.10;;;15.80;99.90;;;15.33;82.97;99830.06;5055689;28;20240;-73
2023/07/25 00:14:13;;;;;;;4.63;2.23;;;15.60;99.90;;;15.38;82.87;99832.94;5055326;28;20297;-73
2023/07/25 00:16:45;;;;;;;4.90;2.33;;;15.60;99.90;;;15.36;82.79;99834.19;5054967;28;20229;-73
2023/07/25 00:19:16;;;;;;;4.30;2.30;;;15.60;99.90;;;15.40;82.28;99836.25;5055514;28;20190;-73
2023/07/25 00:21:48;;;;;;;4.90;2.20;;;15.70;99.90;;;15.41;82.50;99832.50;5055261;28;20289;-73
2023/07/25 00:24:21;;;;;;;4.57;2.30;;;15.60;99.90;;;15.39;81.94;99829.19;5055098;28;20704;-73
2023/07/25 00:26:53;;;;;;;6.13;2.77;;;15.70;99.90;;;15.40;82.01;99830.88;5054795;28;20261;-73
2023/07/25 00:29:25;;;;;;;3.00;2.20;;;15.70;99.90;;;15.37;82.14;99825.91;5054781;28;20638;-73
2023/07/25 00:31:58;;;;;;;4.67;2.37;;;15.70;99.90;;;15.30;82.54;99824.25;5054753;28;20647;-73
2023/07/25 00:34:30;;;;;;;3.80;2.30;;;15.60;99.90;;;15.35;82.52;99830.66;5054900;28;20207;-73
2023/07/25 00:37:02;;;;;;;6.00;2.77;;;15.60;99.90;;;15.37;81.83;99825.91;5054542;28;20611;-73
2023/07/25 00:39:35;;;;;;;6.33;2.47;;;15.60;99.90;;;15.39;82.54;99828.38;5054978;28;20195;-73
2023/07/25 00:42:09;;;;;;;8.67;2.50;;;15.70;99.90;;;15.36;82.24;99829.63;5054459;28;20221;-73
2023/07/25 00:44:41;;;;;;;4.50;2.17;;;15.60;99.90;;;15.28;82.45;99827.16;5054808;28;20186;-73
2023/07/25 00:47:13;;;;;;;4.47;2.60;;;15.50;99.90;;;15.27;82.06;99836.31;5054364;28;20234;-73
2023/07/25 00:49:49;;;;;;;6.90;2.60;;;15.50;99.90;;;15.12;83.13;99835.72;5054709;28;20191;-73
2023/07/25 00:52:21;;;;;;;5.77;2.70;;;15.40;99.90;;;15.01;83.24;99830.97;5054625;28;20285;-73
2023/07/25 00:54:55;;;;;;;5.23;2.27;;;15.40;99.90;;;15.11;82.88;99836.75;5054529;28;20305;-73
2023/07/25 00:57:27;;;;;;;5.10;2.50;;;15.50;99.90;;;15.16;83.09;99834.25;5054480;28;20325;-73
2023/07/25 00:59:59;;;;;;;6.47;3.00;;;15.50;99.90;;;15.07;83.05;99836.34;5054485;28;20289;-73
2023/07/25 01:02:31;;;;;;;8.40;3.47;;;15.40;99.90;;;15.11;82.68;99831.34;5054017;28;20642;-73
2023/07/25 01:05:03;;;;;;;5.50;2.80;;;15.40;99.90;;;14.88;83.80;99834.53;5054670;28;20190;-73
2023/07/25 01:07:38;;;;;;;7.27;2.50;;;15.30;99.90;;;14.80;84.88;99845.50;5054029;28;20550;-73
2023/07/25 01:10:13;;;;;;;4.70;2.87;;;15.10;99.90;;;14.92;84.24;99843.84;5054342;28;20601;-73
2023/07/25 01:12:45;;;;;;;7.03;2.80;;;15.20;99.90;;;14.92;83.96;99849.25;5054480;28;20190;-73
2023/07/25 01:15:17;;;;;;;7.00;2.80;;;15.20;99.90;;;14.92;83.81;99848.41;5054168;28;20214;-73
2023/07/25 01:17:49;;;;;;;6.07;2.60;;;15.20;99.90;;;14.97;83.55;99843.19;5054093;28;20261;-73
2023/07/25 01:20:21;;;;;;;10.17;2.80;;;15.30;99.90;;;14.97;82.92;99840.50;5054146;28;20195;-73
2023/07/25 01:22:55;;;;;;;7.17;2.90;;;15.30;99.90;;;14.99;83.50;99843.84;5054101;28;20292;-73
2023/07/25 01:25:28;;;;;;;7.53;2.80;;;15.30;99.90;;;14.91;84.06;99849.44;5054032;28;20277;-73
2023/07/25 01:28:00;;;;;;;12.10;3.10;;;15.20;99.90;;;14.85;83.68;99844.91;5054151;28;20236;-73
2023/07/25 01:30:32;;;;;;;10.33;3.10;;;15.20;99.90;;;14.90;83.39;99858.56;5053958;28;20273;-73
2023/07/25 01:33:04;;;;;;;12.20;3.27;;;15.20;99.90;;;14.75;84.17;99860.66;5053891;28;20244;-73
2023/07/25 01:35:36;;;;;;;12.43;3.40;;;15.10;99.90;;;14.82;83.76;99862.31;5053474;28;20206;-73
2023/07/25 01:38:08;;;;;;;8.20;3.33;;;15.10;99.90;;;14.89;83.93;99870.41;5053845;28;20194;-73
2023/07/25 01:40:41;;;;;;;10.27;2.97;;;15.20;99.90;;;14.86;84.13;99854.66;5053544;28;20309;-73
2023/07/25 01:43:13;;;;;;;10.37;3.20;;;15.20;99.90;;;14.84;84.43;99856.69;5053735;28;20283;-73
2023/07/25 01:45:45;;;;;;;10.33;3.30;;;15.20;99.90;;;14.85;84.28;99861.91;5053331;28;20630;-73
2023/07/25 01:48:17;;;;;;;6.17;3.03;;;15.20;99.90;;;14.78;84.32;99862.94;5053637;28;20190;-73
2023/07/25 01:50:49;;;;;;;7.47;2.77;;;15.10;99.90;;;14.68;85.33;99864.19;5053626;28;20277;-73
2023/07/25 01:53:21;;;;;;;8.37;3.00;;;15.00;99.90;;;14.64;85.01;99862.13;5053258;28;20228;-73
2023/07/25 01:55:54;;;;;;;6.63;3.30;;;15.00;99.90;;;14.61;85.90;99868.75;5053423;28;20242;-73
2023/07/25 01:58:26;;;;;;;11.37;3.57;;;15.00;99.90;;;14.43;86.37;99873.09;5053544;28;20290;-73
2023/07/25 02:01:02;;;;;;;10.70;3.53;;;14.80;99.90;;;14.56;85.95;99871.22;5053457;28;20281;-73
2023/07/25 02:03:34;;;;;;;5.43;2.90;;;14.90;99.90;;;14.56;86.12;99871.22;5053157;28;20186;-73
2023/07/25 02:06:06;;;;;;;10.23;3.93;;;14.90;99.90;;;14.55;86.26;99874.97;5053234;28;20312;-73
2023/07/25 02:08:38;;;;;;;9.47;3.03;;;14.90;99.90;;;14.54;86.50;99878.69;5053449;28;20190;-73
2023/07/25 02:11:11;;;;;;;7.23;3.33;;;14.90;99.90;;;14.49;86.63;99874.94;5053079;28;20643;-73
2023/07/25 02:13:43;;;;;;;7.77;3.23;;;14.90;99.90;;;14.55;86.37;99874.16;5052821;28;20286;-73
2023/07/25 02:16:15;;;;;;;9.53;3.23;;;14.90;99.90;;;14.60;86.03;99877.88;5053214;28;20238;-73
2023/07/25 02:18:47;;;;;;;10.27;3.37;;;15.00;99.90;;;14.67;86.28;99872.47;5053342;28;20196;-73
2023/07/25 02:21:19;;;;;;;8.87;2.83;;;15.00;99.90;;;14.59;86.19;99878.88;5053321;28;20285;-73
2023/07/25 02:23:51;;;;;;;7.10;3.30;;;15.00;99.90;;;14.61;86.55;99881.38;5052973;28;20633;-73
2023/07/25 02:26:24;;;;;;;10.87;3.80;;;15.00;99.90;;;14.50;86.55;99888.22;5053211;28;20264;-74
2023/07/25 02:28:56;;;;;;;10.70;3.80;;;14.90;99.90;;;14.53;87.32;99886.97;5053288;28;20277;-74
2023/07/25 02:31:28;;;;;;;7.67;3.30;;;14.90;99.90;;;14.43;87.32;99887.38;5052957;28;20723;-74
2023/07/25 02:34:02;;;;;;;10.13;3.50;;;14.80;99.90;;;14.45;87.14;99885.31;5053232;28;20201;-74
2023/07/25 02:36:34;;;;;;;4.60;3.13;;;14.80;99.90;;;14.47;87.69;99883.25;5053026;28;20230;-74
2023/07/25 02:39:05;;;;;;;10.63;3.30;;;14.90;99.90;;;14.47;87.10;99887.81;5052878;28;20186;-74
2023/07/25 02:41:39;;;;;;;7.80;3.17;;;14.80;99.90;;;14.46;87.50;99876.19;5052893;28;20218;-74
2023/07/25 02:44:11;;;;;;;8.57;2.80;;;14.80;99.90;;;14.46;86.76;99876.19;5053072;28;20318;-74
2023/07/25 02:46:43;;;;;;;6.67;3.00;;;14.90;99.90;;;14.51;87.42;99879.13;5052937;28;20329;-74
2023/07/25 02:49:15;;;;;;;6.07;3.10;;;14.90;99.90;;;14.54;86.77;99881.38;5053308;28;20191;-74
2023/07/25 02:51:46;;;;;;;7.67;3.20;;;14.90;99.90;;;14.54;87.22;99884.09;5053063;28;20197;-74
2023/07/25 02:54:18;;;;;;;10.00;3.47;;;15.00;99.90;;;14.56;86.82;99882.00;5053171;28;20213;-74
2023/07/25 02:56:52;;;;;;;8.53;3.43;;;14.90;99.90;;;14.60;86.77;99869.78;5052820;28;20321;-74
2023/07/25 02:59:24;;;;;;;8.10;3.30;;;15.00;99.90;;;14.48;87.28;99873.31;5052949;28;20191;-74
2023/07/25 03:01:55;;;;;;;6.17;3.50;;;14.90;99.90;;;14.45;87.88;99888.00;5052943;28;20281;-74
2023/07/25 03:04:27;;;;;;;10.13;3.50;;;14.80;99.90;;;14.53;87.17;99881.59;5052930;28;20203;-74
2023/07/25 03:06:59;;;;;;;10.17;3.40;;;14.90;99.90;;;14.54;87.00;99877.88;5052818;28;20222;-74
2023/07/25 03:09:32;;;;;;;7.63;3.70;;;15.00;99.90;;;14.56;87.35;99865.84;5052860;28;20186;-74
2023/07/25 03:12:06;;;;;;;10.60;3.57;;;15.00;99.90;;;14.57;86.68;99870.19;5052845;28;20191;-73
2023/07/25 03:14:38;;;;;;;9.07;3.80;;;15.00;99.90;;;14.57;87.35;99867.50;5052511;28;20651;-73
2023/07/25 03:17:10;;;;;;;10.07;3.20;;;15.00;99.90;;;14.54;87.21;99859.84;5052580;28;20623;-73
2023/07/25 03:19:42;;;;;;;10.00;4.17;;;15.00;99.90;;;14.45;87.59;99866.44;5052763;28;20190;-73
2023/07/25 03:22:14;;;;;;;9.40;3.93;;;14.90;99.90;;;14.48;88.23;99870.63;5052460;28;20195;-73
2023/07/25 03:24:46;;;;;;;6.97;3.50;;;14.80;99.90;;;14.41;88.67;99862.53;5052991;28;20199;-73
2023/07/25 03:27:20;;;;;;;7.13;3.70;;;14.80;99.90;;;14.48;88.31;99857.16;5055945;28;20226;-73
2023/07/25 03:29:52;;;;;;;13.50;4.33;;;14.90;99.90;;;14.50;88.74;99853.22;5056216;28;20276;-73
2023/07/25 03:32:24;;;;;;;11.63;4.23;;;14.90;99.90;;;14.53;88.35;99860.03;5056065;28;20281;-73
2023/07/25 03:34:56;;;;;;;11.73;3.87;;;14.90;99.90;;;14.53;88.55;99844.72;5056129;28;20256;-73
2023/07/25 03:37:30;;;;;;;10.00;4.07;;;14.90;99.90;;;14.46;88.97;99865.41;5055621;28;20274;-73
2023/07/25 03:40:03;;;;;;;8.77;3.70;;;14.80;99.90;;;14.54;88.67;99857.16;5055673;28;20304;-73
2023/07/25 03:42:37;;;;;;;12.07;4.63;;;14.90;99.90;;;14.47;89.35;99869.78;5053977;28;20186;-74
2023/07/25 03:45:10;;;;;;;13.47;4.23;;;14.90;99.90;;;14.52;89.18;99864.59;5054540;28;20731;-74
2023/07/25 03:47:42;;;;;;;10.97;3.97;;;14.90;99.90;;;14.52;88.43;99858.41;5055839;28;20254;-74
2023/07/25 03:50:14;;;;;;;8.23;4.30;;;15.00;99.90;;;14.49;89.60;99850.72;5054405;28;20248;-74
2023/07/25 03:52:46;;;;;;;11.40;4.87;;;14.80;99.90;;;14.38;89.51;99857.56;5055106;28;20225;-74
2023/07/25 03:55:18;;;;;;;9.83;4.40;;;14.80;99.90;;;14.42;89.46;99858.78;5055753;28;20191;-74
2023/07/25 03:57:51;;;;;;;11.10;4.47;;;14.90;99.90;;;14.48;89.44;99855.28;5055569;28;20325;-74
2023/07/25 04:00:23;;;;;;;11.80;4.40;;;14.90;99.90;;;14.50;89.35;99871.22;5055682;28;20197;-74
2023/07/25 04:02:54;;;;;;;6.73;4.00;;;14.90;99.90;;;14.51;89.93;99871.03;5055596;28;20191;-74
2023/07/25 04:05:45;;;;;;;9.50;4.43;;;14.90;99.90;;;14.56;89.27;99871.22;5055696;28;20190;-74
2023/07/25 04:08:17;;;;;;;11.17;4.27;;;15.00;99.90;;;14.52;89.08;99872.66;5055504;28;20233;-74
2023/07/25 04:10:49;;;;;;;8.20;3.80;;;15.00;99.90;;;14.54;89.26;99873.31;5055433;28;20196;-74
2023/07/25 04:13:22;;;;;;;11.53;4.83;;;15.00;99.90;;;14.57;89.13;99875.59;5055465;28;20277;-74
2023/07/25 04:15:54;;;;;;;9.43;4.17;;;15.00;99.90;;;14.58;89.47;99866.47;5055235;28;20273;-74
2023/07/25 04:18:26;;;;;;;11.93;4.27;;;15.00;99.90;;;14.48;89.25;99878.69;5054985;28;20537;-74
2023/07/25 04:20:58;;;;;;;9.63;4.53;;;14.90;99.90;;;14.45;89.26;99873.72;5055271;28;20194;-74
2023/07/25 04:23:30;;;;;;;10.50;3.93;;;14.90;99.90;;;14.55;89.39;99877.66;5055257;28;20222;-74
2023/07/25 04:26:02;;;;;;;8.73;4.77;;;15.00;99.90;;;14.54;88.68;99884.09;5055106;28;20309;-74
2023/07/25 04:28:35;;;;;;;10.73;4.57;;;15.00;99.90;;;14.53;89.10;99877.03;5055044;28;20289;-74
2023/07/25 04:31:07;;;;;;;11.23;4.20;;;15.00;99.90;;;14.48;89.55;99887.63;5055112;28;20201;-74
2023/07/25 04:33:39;;;;;;;14.53;4.93;;;14.90;99.90;;;14.45;89.42;99890.69;5055041;28;20277;-74
2023/07/25 04:36:10;;;;;;;12.77;4.53;;;14.90;99.90;;;14.46;89.86;99886.97;5054411;28;20233;-74
2023/07/25 04:38:42;;;;;;;14.53;4.77;;;14.90;99.90;;;14.52;89.72;99886.13;5054636;28;20566;-74
2023/07/25 04:41:16;;;;;;;12.07;5.10;;;15.00;99.90;;;14.42;89.54;99880.34;5054734;28;20312;-74
2023/07/25 04:43:49;;;;;;;11.70;4.77;;;14.90;99.90;;;14.47;89.56;99877.88;5054840;28;20612;-74
2023/07/25 04:46:21;;;;;;;12.97;5.20;;;14.90;99.90;;;14.43;89.28;99883.84;5054411;28;20773;-74
2023/07/25 04:48:53;;;;;;;9.57;4.27;;;14.90;99.90;;;14.43;89.63;99868.53;5054978;28;20202;-74
2023/07/25 04:51:25;;;;;;;11.03;4.90;;;14.80;99.90;;;14.44;89.75;99863.97;5054693;28;20222;-74
2023/07/25 04:53:57;;;;;;;10.53;4.70;;;14.90;99.90;;;14.45;89.81;99869.16;5054640;28;20191;-74
2023/07/25 04:56:28;;;;;;;13.50;5.20;;;14.90;99.90;;;14.43;89.03;99871.22;5054458;28;20230;-74
2023/07/25 04:59:02;;;;;;;9.50;4.97;;;14.90;99.90;;;14.44;89.19;99867.50;5054512;28;20195;-74
2023/07/25 05:01:34;;;;;;;11.47;5.47;;;14.90;99.90;;;14.36;89.14;99874.94;5054443;28;20186;-74
2023/07/25 05:04:06;;;;;;;13.43;4.93;;;14.80;99.90;;;14.34;89.66;99872.47;5054428;28;20225;-74
2023/07/25 05:06:38;;;;;;;13.00;5.73;;;14.70;99.90;;;14.26;89.47;99869.09;5054613;28;20256;-74
2023/07/25 05:09:10;;;;;;;10.13;4.90;;;14.70;99.90;;;14.31;89.84;99872.03;5054392;28;20194;-74
2023/07/25 05:11:42;;;;;;;12.83;5.20;;;14.70;99.90;;;14.31;89.53;99861.25;5054021;28;20734;-74
2023/07/25 05:14:15;;;;;;;13.07;5.20;;;14.70;99.90;;;14.21;89.51;99867.03;5054345;28;20623;-73
2023/07/25 05:16:47;;;;;;;12.57;5.00;;;14.70;99.90;;;14.34;89.30;99859.00;5054062;28;20324;-73
2023/07/25 05:19:19;;;;;;;10.57;4.93;;;14.80;99.90;;;14.37;89.25;99858.59;5053888;28;20718;-73
2023/07/25 05:21:51;;;;;;;18.73;4.87;;;14.80;99.90;;;14.38;88.73;99862.94;5054006;28;20225;-73
2023/07/25 05:24:23;;;;;;;12.10;4.77;;;14.90;99.90;;;14.45;88.86;99863.75;5054095;28;20281;-73
2023/07/25 05:26:55;;;;;;;12.87;5.37;;;14.90;99.90;;;14.46;89.12;99864.59;5053965;28;20249;-73
2023/07/25 05:29:33;;;;;;;13.30;5.33;;;14.90;99.90;;;14.47;88.73;99866.25;5054013;28;20263;-73
2023/07/25 05:32:05;;;;;;;8.57;5.10;;;14.90;99.90;;;14.51;88.65;99862.13;5053937;28;20357;-73
2023/07/25 05:34:37;;;;;;;15.70;6.60;;;15.00;99.90;;;14.50;88.25;99861.28;5053571;28;20248;-73
2023/07/25 05:37:07;;;;;;;8.80;5.10;;;15.00;99.90;;;14.52;88.22;99858.41;5053729;28;20233;-73
2023/07/25 05:39:39;;;;;;;9.70;5.87;;;15.00;99.90;;;14.45;88.55;99861.06;5053849;28;20220;-73
2023/07/25 05:42:11;;;;;;;11.73;5.57;;;14.90;99.90;;;14.49;88.11;99854.22;5053792;28;20198;-73
2023/07/25 05:44:44;;;;;;;12.37;6.07;;;15.00;99.90;;;14.53;88.14;99855.47;5053750;28;20285;-73
2023/07/25 05:47:16;;;;;;;9.33;5.87;;;15.00;99.90;;;14.54;88.16;99862.53;5053612;28;20221;-73
2023/07/25 05:49:48;;;;;;;11.83;5.80;;;15.00;99.90;;;14.45;87.01;99871.84;5052975;28;20285;-73
2023/07/25 05:52:20;;;;;;;11.80;5.50;;;15.00;99.90;;;14.42;87.42;99874.09;5053633;28;20281;-73
2023/07/25 05:54:53;;;;;;;12.57;5.67;;;14.90;99.90;;;14.43;87.83;99876.59;5053612;28;20281;-73
2023/07/25 05:57:25;;;;;;;11.00;5.97;;;14.90;99.90;;;14.48;87.82;99874.16;5053334;28;20240;-74
2023/07/25 05:59:58;;;;;;;11.03;5.70;;;15.00;99.90;;;14.45;86.78;99873.72;5053237;28;20647;-74
2023/07/25 06:02:30;;;;;;;12.13;6.47;;;15.00;99.90;;;14.48;86.50;99867.94;5053797;28;20191;-74
2023/07/25 06:05:03;;;;;;;11.07;6.20;;;15.00;99.90;;;14.54;86.92;99878.69;5053523;28;20194;-74
2023/07/25 06:07:34;;;;;;;12.27;6.07;;;15.00;99.90;;;14.54;86.48;99884.09;5053065;28;20702;-74
2023/07/25 06:10:08;;;;;;;11.33;6.27;;;15.10;99.90;;;14.59;86.89;99897.75;5053413;28;20278;-74
2023/07/25 06:12:42;;;;;;;15.83;6.67;;;15.10;99.90;;;14.54;86.69;99902.94;5053358;28;20281;-74
2023/07/25 06:15:16;;;;;;;13.10;7.10;;;15.00;99.90;;;14.62;86.76;99901.91;5053348;28;20198;-74
2023/07/25 06:17:48;;;;;;;10.77;6.63;;;15.10;99.90;;;14.62;85.89;99894.63;5052945;28;20230;-74
2023/07/25 06:20:19;;;;;;;13.03;6.17;;;15.10;99.90;;;14.66;86.42;99898.56;5053637;28;20187;-74
2023/07/25 06:22:52;;;;;;;10.13;5.87;;;15.20;99.90;;;14.67;85.63;99908.31;5053907;28;20277;-74
2023/07/25 06:25:24;;;;;;;9.30;5.80;;;15.20;99.90;;;14.69;85.47;99908.94;5053357;28;20277;-74
2023/07/25 06:27:56;;;;;;;12.63;6.27;;;15.20;99.90;;;14.67;85.37;99919.09;5053179;28;20312;-74
2023/07/25 06:30:29;;;;;;;12.40;6.00;;;15.20;99.90;;;14.69;84.89;99925.09;5053245;28;20198;-74
2023/07/25 06:33:02;;;;;;;15.40;5.40;;;15.20;99.90;;;14.64;84.75;99927.59;5053244;28;20198;-74
2023/07/25 06:35:33;;;;;;;11.67;5.73;;;15.20;99.90;;;14.61;84.72;99933.41;5053210;28;20205;-74
2023/07/25 06:38:05;;;;;;;15.00;5.80;;;15.10;99.90;;;14.64;84.30;99930.28;5053093;28;20293;-74
2023/07/25 06:40:37;;;;;;;13.07;5.13;;;15.10;99.90;;;14.61;83.77;99935.28;5052730;28;20652;-74
2023/07/25 06:43:09;;;;;;;9.97;4.77;;;15.10;99.90;;;14.68;84.21;99938.81;5052874;28;20738;-74
2023/07/25 06:45:42;;;;;;;11.37;4.83;;;15.20;99.90;;;14.73;84.10;99942.53;5052992;28;20209;-74
2023/07/25 06:48:14;;;;;;;16.17;5.07;;;15.30;99.90;;;14.80;83.75;99947.06;5053072;28;20277;-74
2023/07/25 06:50:47;;;;;;;9.83;4.53;;;15.30;99.90;;;14.89;84.29;99948.56;5052995;28;20285;-74
2023/07/25 06:53:18;;;;;;;9.70;4.50;;;15.40;99.90;;;14.88;81.98;99947.72;5053021;28;20195;-74
2023/07/25 06:55:51;;;;;;;11.13;4.90;;;15.40;99.90;;;14.96;81.89;99935.91;5052937;28;20269;-74
2023/07/25 06:58:23;;;;;;;12.80;5.13;;;15.50;99.90;;;15.04;82.37;99938.38;5052640;28;20776;-74
2023/07/25 07:00:56;;;;;;;11.63;4.77;;;15.60;99.90;;;15.05;81.32;99934.66;5055489;28;20642;-74
2023/07/25 07:03:28;;;;;;;11.57;5.03;;;15.60;99.90;;;15.12;83.92;99935.47;5056973;28;20206;-74
2023/07/25 07:06:00;;;;;;;10.30;4.60;;;15.60;99.90;;;15.10;80.44;99940.25;5056676;28;20323;-74
2023/07/25 07:08:32;;;;;;;9.83;3.97;;;15.60;99.90;;;15.14;80.44;99933.38;5056722;28;20187;-74
2023/07/25 07:11:03;;;;;;;14.30;4.50;;;15.70;99.90;;;15.22;81.83;99934.00;5056271;28;20632;-74
2023/07/25 07:13:35;;;;;;;13.13;4.10;;;15.70;99.90;;;15.28;81.79;99929.63;5056586;28;20218;-74
2023/07/25 07:16:09;;;;;;;12.43;4.13;;;15.80;99.90;;;15.42;79.38;99930.44;5056438;28;20261;-74
2023/07/25 07:18:42;;;;;;;9.53;3.60;;;15.90;99.90;;;15.49;78.72;99925.88;5056383;28;20217;-74
2023/07/25 07:21:13;;;;;;;10.17;3.30;;;16.00;99.90;;;15.51;78.62;99921.13;5057199;28;20297;-74
2023/07/25 07:23:45;;;;;;;10.57;4.10;;;16.10;99.90;;;15.47;77.30;99922.56;5056152;28;20293;-74
2023/07/25 07:26:17;;;;;;;7.90;3.50;;;16.00;99.90;;;15.48;76.59;99918.81;5056216;28;20260;-74
2023/07/25 07:28:49;;;;;;;7.40;3.30;;;16.00;99.90;;;15.53;77.59;99913.63;5055975;28;20193;-74
2023/07/25 07:31:24;;;;;;;8.60;3.00;;;16.10;99.90;;;15.57;76.94;99918.41;5055916;28;20666;-74
2023/07/25 07:34:09;;;;;;;9.00;3.90;;;16.10;99.90;;;15.59;74.48;99910.06;5056201;28;20194;-74
2023/07/25 07:36:41;;;;;;;10.87;3.70;;;16.20;99.90;;;15.63;75.33;99906.75;5055801;28;20226;-74
2023/07/25 07:39:14;;;;;;;15.47;4.23;;;16.20;99.90;;;15.68;77.51;99909.63;5055627;28;20206;-74
2023/07/25 07:41:46;;;;;;;9.33;3.87;;;16.30;99.90;;;15.68;75.57;99904.22;5055711;28;20237;-74
2023/07/25 07:44:18;;;;;;;11.07;3.80;;;16.20;99.90;;;15.75;74.08;99903.41;5055932;28;20201;-74
2023/07/25 07:46:52;;;;;;;9.30;3.27;;;16.30;99.90;;;15.71;73.16;99903.00;5055898;28;20230;-74
2023/07/25 07:49:23;;;;;;;11.17;3.23;;;16.20;99.90;;;15.70;74.42;99904.84;5055903;28;20190;-74
2023/07/25 07:51:56;;;;;;;9.07;3.10;;;16.20;99.90;;;15.67;73.48;99896.38;5055835;28;20229;-74
2023/07/25 07:54:36;;;;;;;7.80;3.13;;;16.20;99.90;;;15.72;74.61;99889.28;5055482;28;20194;-74
2023/07/25 07:57:08;;;;;;;7.53;3.10;;;16.30;99.90;;;15.87;73.58;99890.88;5055371;28;20309;-74
2023/07/25 07:59:42;;;;;;;7.97;3.03;;;16.40;99.90;;;15.95;73.22;99885.22;5055611;28;20305;-74
2023/07/25 08:02:16;;;;;;;8.67;3.23;;;16.50;99.90;;;15.95;74.14;99887.94;5055675;28;20277;-74
2023/07/25 08:04:47;;;;;;;7.50;3.53;;;16.50;99.90;;;15.95;73.40;99887.94;5055632;28;20197;-74
2023/07/25 08:07:19;;;;;;;6.37;3.00;;;16.50;99.90;;;15.96;71.64;99889.59;5055250;28;20274;-72
2023/07/25 08:09:58;;;;;;;7.57;2.87;;;16.50;99.90;;;15.99;72.33;99887.25;5055490;28;20186;-72
2023/07/25 08:12:30;;;;;;;11.53;2.93;;;16.50;99.90;;;16.00;70.18;99886.22;5054626;28;20214;-72
2023/07/25 08:15:02;;;;;;;10.93;2.97;;;16.50;99.60;;;15.96;69.36;99889.59;5055338;28;20218;-72
2023/07/25 08:17:36;;;;;;;8.87;3.40;;;16.50;98.90;;;15.98;71.58;99895.59;5055381;28;20356;-72
2023/07/25 08:20:13;;;;;;;8.23;3.20;;;16.50;99.90;;;15.94;71.51;99883.56;5055295;28;20206;-72
2023/07/25 08:22:46;;;;;;;8.37;3.33;;;16.50;99.90;;;15.96;72.64;99882.31;5055544;28;20197;-72
2023/07/25 08:25:18;;;;;;;11.57;3.87;;;16.50;99.90;;;15.98;72.47;99876.69;5055294;28;20201;-72
2023/07/25 08:27:50;;;;;;;7.20;3.30;;;16.50;99.90;;;15.97;73.23;99880.44;5055370;28;20226;-72
2023/07/25 08:30:22;;;;;;;9.37;3.33;;;16.50;99.90;;;15.94;70.43;99886.28;5054909;28;20225;-72
2023/07/25 08:32:56;;;;;;;12.27;3.67;;;16.50;99.60;;;16.01;71.80;99881.66;5055081;28;20197;-72
2023/07/25 08:35:28;;;;;;;9.77;3.67;;;16.50;99.90;;;16.17;70.27;99878.44;5054768;28;20547;-72
2023/07/25 08:38:02;;;;;;;6.40;2.87;;;16.70;99.40;;;16.27;67.94;99876.09;5054943;28;20363;-72
2023/07/25 08:40:34;;;;;;;5.53;2.60;;;16.80;97.70;;;16.29;68.69;99884.00;5054714;28;20301;-72
2023/07/25 08:43:12;;;;;;;9.70;2.57;;;16.80;98.40;;;16.25;67.32;99883.59;5054898;28;20194;-72
2023/07/25 08:45:48;;;;;;;5.73;2.60;;;16.80;98.30;;;16.33;69.54;99875.25;5054881;28;20266;-72
2023/07/25 08:48:24;;;;;;;10.37;3.23;;;16.90;98.70;;;16.45;70.06;99883.47;5054811;28;20561;-73
2023/07/25 08:51:04;;;;;;;9.27;3.23;;;17.00;98.80;;;16.54;67.23;99880.25;5054808;28;20198;-72
2023/07/25 08:53:42;;;;;;;6.10;3.07;;;17.10;97.60;;;16.65;65.49;99879.59;5054472;28;20719;-72
2023/07/25 08:56:14;;;;;;;6.90;2.73;;;17.20;96.90;;;16.85;68.62;99882.13;5054311;28;20710;-72
2023/07/25 08:58:47;;;;;;;7.00;2.80;;;17.40;97.60;;;16.89;71.58;99886.03;5054528;28;20250;-72
2023/07/25 09:01:20;;;;;;;6.63;2.43;;;17.50;99.40;;;16.83;66.26;99884.22;5054548;28;20222;-72
2023/07/25 09:03:54;;;;;;;9.67;3.10;;;17.40;97.20;;;16.80;66.26;99883.84;5054525;28;20244;-72
2023/07/25 09:06:26;;;;;;;4.83;2.43;;;17.30;96.70;;;16.83;63.60;99880.69;5054116;28;20744;-72
2023/07/25 09:08:58;;;;;;;6.30;2.40;;;17.40;95.50;;;16.98;62.74;99878.47;5054356;28;20727;-72
2023/07/25 09:11:30;;;;;;;3.67;2.07;;;17.50;95.20;;;17.13;65.57;99892.47;5054605;28;20190;-73
2023/07/25 09:14:03;;;;;;;5.80;2.30;;;17.60;96.20;;;17.16;63.78;99883.91;5054435;28;20191;-72
2023/07/25 09:16:35;;;;;;;10.70;3.13;;;17.70;95.20;;;17.27;62.98;99883.16;5053905;28;20232;-73
2023/07/25 09:19:08;;;;;;;7.70;2.87;;;17.90;94.70;;;17.24;66.25;99894.44;5054106;28;20214;-73
2023/07/25 09:21:50;;;;;;;5.30;2.10;;;17.80;96.50;;;17.19;63.71;99897.00;5053850;28;20659;-72
2023/07/25 09:24:22;;;;;;;8.00;2.23;;;17.70;95.50;;;17.11;64.31;99889.16;5053751;28;20555;-72
2023/07/25 09:26:58;;;;;;;7.63;2.90;;;17.60;94.90;;;17.04;63.84;99886.53;5053937;28;20229;-72
2023/07/25 09:29:38;;;;;;;4.47;2.20;;;17.50;95.30;;;17.05;64.67;99890.06;5053812;28;20185;-72
2023/07/25 09:32:28;;;;;;;8.40;2.43;;;17.50;95.40;;;17.12;65.98;99894.34;5053911;28;20225;-72
2023/07/25 09:35:05;;;;;;;8.63;3.00;;;17.60;96.10;;;17.32;63.06;99896.84;5053907;28;20580;-72
2023/07/25 09:37:38;;;;;;;7.57;2.20;;;17.80;94.70;;;17.50;62.79;99887.94;5054751;28;20229;-72
2023/07/25 09:40:13;;;;;;;5.73;2.20;;;18.00;94.70;;;17.63;63.48;99893.22;5053376;28;20258;-73
2023/07/25 09:42:46;;;;;;;7.93;2.83;;;18.20;94.70;;;17.78;62.83;99895.50;5053712;28;20194;-74
2023/07/25 09:45:18;;;;;;;7.30;2.30;;;18.30;94.50;;;17.90;60.54;99899.94;5053754;28;20190;-74
2023/07/25 09:47:55;;;;;;;7.50;2.20;;;18.50;93.00;;;17.89;62.56;99900.16;5053338;28;20675;-74
2023/07/25 09:50:36;;;;;;;4.57;1.77;;;18.50;94.10;;;17.77;56.25;99893.88;5053680;28;20197;-74
2023/07/25 09:53:15;;;;;;;3.93;1.70;;;18.30;90.50;;;17.69;57.05;99893.13;5053644;28;20190;-74
2023/07/25 09:55:47;;;;;;;4.00;2.20;;;18.20;91.00;;;17.72;54.94;99895.38;5053594;28;20251;-74
2023/07/25 09:58:20;;;;;;;6.77;1.50;;;18.20;90.00;;;17.87;52.79;99896.88;5053287;28;20626;-74
2023/07/25 10:00:53;;;;;;;3.73;1.67;;;18.40;87.20;;;17.96;53.95;99893.63;5053478;28;20293;-74
2023/07/25 10:03:29;;;;;;;4.13;1.93;;;18.50;87.70;;;18.13;51.07;99900.06;5053786;28;20190;-74
2023/07/25 10:06:04;;;;;;;7.40;1.80;;;18.60;83.80;;;18.24;53.88;99899.28;5053411;28;20259;-74
2023/07/25 10:08:37;;;;;;;4.13;2.00;;;18.80;88.60;;;18.29;59.03;99887.72;5053502;28;20281;-74
2023/07/25 10:11:10;;;;;;;3.50;1.70;;;18.80;91.20;;;18.37;57.71;99884.69;5053188;28;20277;-74
2023/07/25 10:13:43;;;;;;;4.97;1.97;;;18.90;91.40;;;18.33;58.01;99897.06;5053419;28;20280;-74
2023/07/25 10:16:17;;;;;;;4.27;1.90;;;18.90;91.00;;;18.25;56.94;99902.81;5053549;28;20279;-74
2023/07/25 10:18:59;;;;;;;5.70;2.00;;;18.80;90.40;;;18.16;56.45;99904.16;5053078;28;20643;-74
2023/07/25 10:21:47;;;;;;;4.97;1.70;;;18.60;90.30;;;18.18;55.95;99902.88;5053384;28;20194;-74
2023/07/25 10:24:21;;;;;;;3.57;1.40;;;18.60;90.00;;;18.27;58.73;99897.16;5053371;28;20191;-74
2023/07/25 10:26:57;;;;;;;6.17;2.00;;;18.80;91.60;;;18.43;55.30;99900.03;5053457;28;20233;-74
2023/07/25 10:29:43;;;;;;;6.00;1.90;;;18.90;88.70;;;18.55;53.29;99897.38;5053256;28;20182;-74
2023/07/25 10:32:21;;;;;;;6.03;1.87;;;19.10;86.10;;;18.61;55.03;99900.00;5053247;28;20375;-74
2023/07/25 10:35:01;;;;;;;4.33;1.80;;;19.10;87.70;;;18.60;54.15;99901.03;5054223;28;20193;-74
2023/07/25 10:37:41;;;;;;;4.27;1.70;;;19.10;87.60;;;18.60;56.96;99900.22;5057209;28;20229;-74
2023/07/25 10:40:24;;;;;;;7.40;1.87;;;19.10;90.10;;;18.55;57.34;99898.22;5057051;28;20229;-74